sensor_id;sensor_type;location;lat;lon;timestamp;pressure;altitude;pressure_sealevel;temperature;humidity
33625;BME280;19962;47.820;1.930;2023-01-15T00:00:24;99707.53;;;11.92;100.00
33625;BME280;19962;47.820;1.930;2023-01-15T00:02:51;99705.06;;;11.90;100.00
33625;BME280;19962;47.820;1.930;2023-01-15T00:05:17;99714.25;;;12.01;100.00
33625;BME280;19962;47.820;1.930;2023-01-15T00:07:43;99718.44;;;12.08;100.00
33625;BME280;19962;47.820;1.930;2023-01-15T00:10:09;99717.09;;;12.11;100.00
33625;BME280;19962;47.820;1.930;2023-01-15T00:12:36;99718.97;;;12.05;100.00
33625;BME280;19962;47.820;1.930;2023-01-15T00:15:02;99713.03;;;11.92;100.00
33625;BME280;19962;47.820;1.930;2023-01-15T00:17:28;99713.69;;;11.99;100.00
33625;BME280;19962;47.820;1.930;2023-01-15T00:19:54;99700.78;;;12.04;100.00
33625;BME280;19962;47.820;1.930;2023-01-15T00:22:20;99710.56;;;12.17;100.00
33625;BME280;19962;47.820;1.930;2023-01-15T00:24:46;99708.66;;;11.91;100.00
33625;BME280;19962;47.820;1.930;2023-01-15T00:27:31;99712.63;;;12.05;100.00
33625;BME280;19962;47.820;1.930;2023-01-15T00:30:09;99716.78;;;11.81;100.00
33625;BME280;19962;47.820;1.930;2023-01-15T00:32:35;99717.78;;;11.96;100.00
33625;BME280;19962;47.820;1.930;2023-01-15T00:35:01;99718.38;;;12.03;100.00
33625;BME280;19962;47.820;1.930;2023-01-15T00:37:28;99726.47;;;11.88;100.00
33625;BME280;19962;47.820;1.930;2023-01-15T00:39:54;99719.09;;;11.94;100.00
33625;BME280;19962;47.820;1.930;2023-01-15T00:42:20;99724.13;;;12.02;100.00
33625;BME280;19962;47.820;1.930;2023-01-15T00:44:46;99722.78;;;12.04;100.00
33625;BME280;19962;47.820;1.930;2023-01-15T00:47:12;99732.94;;;11.99;100.00
33625;BME280;19962;47.820;1.930;2023-01-15T00:49:43;99721.22;;;12.13;100.00
33625;BME280;19962;47.820;1.930;2023-01-15T00:52:10;99721.78;;;12.10;100.00
33625;BME280;19962;47.820;1.930;2023-01-15T00:54:36;99700.06;;;12.14;100.00
33625;BME280;19962;47.820;1.930;2023-01-15T00:57:03;99700.38;;;12.17;100.00
33625;BME280;19962;47.820;1.930;2023-01-15T00:59:30;99708.06;;;12.15;100.00
33625;BME280;19962;47.820;1.930;2023-01-15T01:01:56;99701.25;;;12.23;100.00
33625;BME280;19962;47.820;1.930;2023-01-15T01:04:22;99712.22;;;12.18;100.00
33625;BME280;19962;47.820;1.930;2023-01-15T01:06:48;99711.06;;;12.14;100.00
33625;BME280;19962;47.820;1.930;2023-01-15T01:09:15;99721.56;;;12.17;100.00
33625;BME280;19962;47.820;1.930;2023-01-15T01:11:42;99725.34;;;12.11;100.00
33625;BME280;19962;47.820;1.930;2023-01-15T01:14:10;99726.47;;;12.15;100.00
33625;BME280;19962;47.820;1.930;2023-01-15T01:16:40;99725.16;;;12.22;100.00
33625;BME280;19962;47.820;1.930;2023-01-15T01:19:12;99723.25;;;12.23;100.00
33625;BME280;19962;47.820;1.930;2023-01-15T01:21:40;99729.38;;;12.30;100.00
33625;BME280;19962;47.820;1.930;2023-01-15T01:24:07;99740.31;;;12.25;100.00
33625;BME280;19962;47.820;1.930;2023-01-15T01:26:35;99738.69;;;12.29;100.00
33625;BME280;19962;47.820;1.930;2023-01-15T01:29:01;99725.59;;;12.36;100.00
33625;BME280;19962;47.820;1.930;2023-01-15T01:31:28;99713.78;;;12.09;100.00
33625;BME280;19962;47.820;1.930;2023-01-15T01:33:56;99692.34;;;12.11;100.00
33625;BME280;19962;47.820;1.930;2023-01-15T01:36:31;99706.72;;;12.18;100.00
33625;BME280;19962;47.820;1.930;2023-01-15T01:38:58;99714.72;;;12.19;100.00
33625;BME280;19962;47.820;1.930;2023-01-15T01:41:25;99722.59;;;12.11;100.00
33625;BME280;19962;47.820;1.930;2023-01-15T01:46:37;99738.34;;;12.20;100.00
33625;BME280;19962;47.820;1.930;2023-01-15T01:49:09;99750.91;;;12.11;100.00
33625;BME280;19962;47.820;1.930;2023-01-15T01:51:44;99757.03;;;11.92;100.00
33625;BME280;19962;47.820;1.930;2023-01-15T01:54:14;99747.22;;;12.01;100.00
33625;BME280;19962;47.820;1.930;2023-01-15T01:56:42;99748.41;;;12.10;100.00
33625;BME280;19962;47.820;1.930;2023-01-15T01:59:09;99748.94;;;12.07;100.00
33625;BME280;19962;47.820;1.930;2023-01-15T02:01:35;99752.97;;;11.99;100.00
33625;BME280;19962;47.820;1.930;2023-01-15T02:04:04;99765.41;;;12.07;100.00
33625;BME280;19962;47.820;1.930;2023-01-15T02:06:31;99769.78;;;12.03;100.00
33625;BME280;19962;47.820;1.930;2023-01-15T02:08:58;99757.31;;;11.95;100.00
33625;BME280;19962;47.820;1.930;2023-01-15T02:11:24;99759.88;;;12.02;100.00
33625;BME280;19962;47.820;1.930;2023-01-15T02:16:55;99783.81;;;12.01;100.00
33625;BME280;19962;47.820;1.930;2023-01-15T02:19:39;99766.78;;;12.04;100.00
33625;BME280;19962;47.820;1.930;2023-01-15T02:22:17;99763.25;;;12.09;100.00
33625;BME280;19962;47.820;1.930;2023-01-15T02:27:41;99771.47;;;12.04;99.65
33625;BME280;19962;47.820;1.930;2023-01-15T02:30:19;99781.63;;;12.03;99.41
33625;BME280;19962;47.820;1.930;2023-01-15T02:33:16;99785.53;;;11.86;99.26
33625;BME280;19962;47.820;1.930;2023-01-15T02:35:51;99801.38;;;11.79;99.65
33625;BME280;19962;47.820;1.930;2023-01-15T02:38:21;99814.00;;;11.96;100.00
33625;BME280;19962;47.820;1.930;2023-01-15T02:40:53;99803.56;;;11.98;99.42
33625;BME280;19962;47.820;1.930;2023-01-15T02:43:20;99806.94;;;11.84;99.75
33625;BME280;19962;47.820;1.930;2023-01-15T02:45:49;99820.19;;;11.87;99.61
33625;BME280;19962;47.820;1.930;2023-01-15T02:48:21;99805.72;;;11.75;99.47
33625;BME280;19962;47.820;1.930;2023-01-15T02:50:55;99814.63;;;11.82;99.52
33625;BME280;19962;47.820;1.930;2023-01-15T02:53:29;99820.69;;;11.84;99.01
33625;BME280;19962;47.820;1.930;2023-01-15T02:56:03;99840.50;;;11.86;99.19
33625;BME280;19962;47.820;1.930;2023-01-15T02:58:34;99835.41;;;11.73;98.72
33625;BME280;19962;47.820;1.930;2023-01-15T03:01:06;99840.53;;;11.69;98.70
33625;BME280;19962;47.820;1.930;2023-01-15T03:06:28;99827.78;;;11.80;98.42
33625;BME280;19962;47.820;1.930;2023-01-15T03:08:57;99835.56;;;11.88;98.48
33625;BME280;19962;47.820;1.930;2023-01-15T03:11:24;99832.81;;;11.88;98.31
33625;BME280;19962;47.820;1.930;2023-01-15T03:17:10;99860.56;;;11.86;98.59
33625;BME280;19962;47.820;1.930;2023-01-15T03:22:08;99842.53;;;11.74;98.83
33625;BME280;19962;47.820;1.930;2023-01-15T03:24:48;99835.34;;;11.68;98.16
33625;BME280;19962;47.820;1.930;2023-01-15T03:27:16;99839.84;;;11.79;98.86
33625;BME280;19962;47.820;1.930;2023-01-15T03:29:45;99839.31;;;11.77;97.58
33625;BME280;19962;47.820;1.930;2023-01-15T03:32:12;99835.16;;;11.74;98.26
33625;BME280;19962;47.820;1.930;2023-01-15T03:34:49;99835.16;;;11.74;96.81
33625;BME280;19962;47.820;1.930;2023-01-15T03:37:17;99852.06;;;11.66;97.94
33625;BME280;19962;47.820;1.930;2023-01-15T03:39:44;99848.59;;;11.76;98.20
33625;BME280;19962;47.820;1.930;2023-01-15T03:50:51;99853.66;;;11.84;97.21
33625;BME280;19962;47.820;1.930;2023-01-15T03:53:42;99848.59;;;11.76;95.74
33625;BME280;19962;47.820;1.930;2023-01-15T03:56:33;99862.53;;;11.69;95.27
33625;BME280;19962;47.820;1.930;2023-01-15T03:59:12;99879.28;;;11.68;97.37
33625;BME280;19962;47.820;1.930;2023-01-15T04:01:42;99875.38;;;11.64;96.80
33625;BME280;19962;47.820;1.930;2023-01-15T04:04:10;99881.38;;;11.61;97.17
33625;BME280;19962;47.820;1.930;2023-01-15T04:06:39;99885.22;;;11.60;95.93
33625;BME280;19962;47.820;1.930;2023-01-15T04:09:09;99877.69;;;11.55;96.11
33625;BME280;19962;47.820;1.930;2023-01-15T04:11:36;99875.28;;;11.59;96.81
33625;BME280;19962;47.820;1.930;2023-01-15T04:14:03;99866.13;;;11.53;96.36
33625;BME280;19962;47.820;1.930;2023-01-15T04:16:30;99865.88;;;11.55;95.84
33625;BME280;19962;47.820;1.930;2023-01-15T04:18:57;99867.84;;;11.59;95.91
33625;BME280;19962;47.820;1.930;2023-01-15T04:21:23;99871.47;;;11.60;95.91
33625;BME280;19962;47.820;1.930;2023-01-15T04:23:49;99875.19;;;11.54;95.87
33625;BME280;19962;47.820;1.930;2023-01-15T04:26:16;99882.63;;;11.53;95.65
33625;BME280;19962;47.820;1.930;2023-01-15T04:28:42;99891.16;;;11.57;95.24
33625;BME280;19962;47.820;1.930;2023-01-15T04:31:08;99891.78;;;11.59;94.83
33625;BME280;19962;47.820;1.930;2023-01-15T04:33:34;99885.22;;;11.60;94.77
33625;BME280;19962;47.820;1.930;2023-01-15T04:36:02;99880.19;;;11.57;94.97
33625;BME280;19962;47.820;1.930;2023-01-15T04:38:28;99873.28;;;11.54;95.32
33625;BME280;19962;47.820;1.930;2023-01-15T04:40:55;99869.63;;;11.49;95.62
33625;BME280;19962;47.820;1.930;2023-01-15T04:43:43;99877.53;;;11.62;95.38
33625;BME280;19962;47.820;1.930;2023-01-15T04:46:27;99877.94;;;11.54;94.88
33625;BME280;19962;47.820;1.930;2023-01-15T04:48:53;99893.84;;;11.52;94.59
33625;BME280;19962;47.820;1.930;2023-01-15T04:51:19;99902.69;;;11.37;94.21
33625;BME280;19962;47.820;1.930;2023-01-15T04:53:46;99909.66;;;11.45;94.70
33625;BME280;19962;47.820;1.930;2023-01-15T04:56:12;99919.16;;;11.37;94.25
33625;BME280;19962;47.820;1.930;2023-01-15T04:58:38;99925.25;;;11.39;94.50
33625;BME280;19962;47.820;1.930;2023-01-15T05:01:11;99929.41;;;11.42;94.19
33625;BME280;19962;47.820;1.930;2023-01-15T05:03:37;99927.47;;;11.42;94.63
33625;BME280;19962;47.820;1.930;2023-01-15T05:06:03;99935.81;;;11.31;93.57
33625;BME280;19962;47.820;1.930;2023-01-15T05:08:30;99936.41;;;11.33;94.33
33625;BME280;19962;47.820;1.930;2023-01-15T05:11:04;99931.47;;;11.35;94.46
33625;BME280;19962;47.820;1.930;2023-01-15T05:13:31;99930.81;;;11.44;94.48
33625;BME280;19962;47.820;1.930;2023-01-15T05:16:12;99934.91;;;11.42;93.08
33625;BME280;19962;47.820;1.930;2023-01-15T05:18:39;99934.81;;;11.37;93.50
33625;BME280;19962;47.820;1.930;2023-01-15T05:21:08;99937.03;;;11.40;93.98
33625;BME280;19962;47.820;1.930;2023-01-15T05:23:37;99944.88;;;11.31;93.98
33625;BME280;19962;47.820;1.930;2023-01-15T05:26:04;99949.88;;;11.34;94.62
33625;BME280;19962;47.820;1.930;2023-01-15T05:28:30;99946.63;;;11.37;94.50
33625;BME280;19962;47.820;1.930;2023-01-15T05:30:56;99939.16;;;11.33;93.61
33625;BME280;19962;47.820;1.930;2023-01-15T05:33:22;99952.28;;;11.31;93.58
33625;BME280;19962;47.820;1.930;2023-01-15T05:35:48;99950.88;;;11.28;94.02
33625;BME280;19962;47.820;1.930;2023-01-15T05:38:14;99962.78;;;11.34;94.07
33625;BME280;19962;47.820;1.930;2023-01-15T05:40:41;99968.84;;;11.36;93.64
33625;BME280;19962;47.820;1.930;2023-01-15T05:43:07;99972.00;;;11.28;93.54
33625;BME280;19962;47.820;1.930;2023-01-15T05:45:34;99969.28;;;11.28;94.15
33625;BME280;19962;47.820;1.930;2023-01-15T05:48:01;99979.25;;;11.34;93.85
33625;BME280;19962;47.820;1.930;2023-01-15T05:50:27;99994.72;;;11.40;93.73
33625;BME280;19962;47.820;1.930;2023-01-15T05:52:53;99989.22;;;11.40;93.24
33625;BME280;19962;47.820;1.930;2023-01-15T05:55:19;99993.06;;;11.39;93.29
33625;BME280;19962;47.820;1.930;2023-01-15T05:57:45;99992.34;;;11.43;92.62
33625;BME280;19962;47.820;1.930;2023-01-15T06:00:12;100005.13;;;11.38;92.93
33625;BME280;19962;47.820;1.930;2023-01-15T06:02:38;99996.06;;;11.37;92.92
33625;BME280;19962;47.820;1.930;2023-01-15T06:05:04;99990.16;;;11.29;92.93
33625;BME280;19962;47.820;1.930;2023-01-15T06:07:30;99999.38;;;11.23;93.52
33625;BME280;19962;47.820;1.930;2023-01-15T06:09:57;99997.91;;;11.32;93.75
33625;BME280;19962;47.820;1.930;2023-01-15T06:12:23;100001.47;;;11.32;93.65
33625;BME280;19962;47.820;1.930;2023-01-15T06:14:49;100026.66;;;11.29;93.33
33625;BME280;19962;47.820;1.930;2023-01-15T06:17:15;100026.41;;;11.31;92.99
33625;BME280;19962;47.820;1.930;2023-01-15T06:19:41;100034.09;;;11.29;93.10
33625;BME280;19962;47.820;1.930;2023-01-15T06:22:07;100020.53;;;11.39;93.23
33625;BME280;19962;47.820;1.930;2023-01-15T06:24:33;100028.81;;;11.11;92.42
33625;BME280;19962;47.820;1.930;2023-01-15T06:26:59;100030.16;;;11.25;93.07
33625;BME280;19962;47.820;1.930;2023-01-15T06:29:26;100035.88;;;11.07;92.64
33625;BME280;19962;47.820;1.930;2023-01-15T06:31:52;100032.34;;;11.23;92.25
33625;BME280;19962;47.820;1.930;2023-01-15T06:34:18;100028.16;;;11.20;91.98
33625;BME280;19962;47.820;1.930;2023-01-15T06:36:45;100044.75;;;11.14;91.53
33625;BME280;19962;47.820;1.930;2023-01-15T06:39:11;100050.25;;;11.14;92.01
33625;BME280;19962;47.820;1.930;2023-01-15T06:41:37;100045.94;;;11.18;92.08
33625;BME280;19962;47.820;1.930;2023-01-15T06:44:22;100056.25;;;11.11;92.20
33625;BME280;19962;47.820;1.930;2023-01-15T06:47:17;100055.19;;;11.12;91.96
33625;BME280;19962;47.820;1.930;2023-01-15T06:49:55;100067.09;;;11.17;91.53
33625;BME280;19962;47.820;1.930;2023-01-15T06:52:24;100074.06;;;11.08;91.90
33625;BME280;19962;47.820;1.930;2023-01-15T06:54:51;100073.69;;;11.05;92.16
33625;BME280;19962;47.820;1.930;2023-01-15T06:57:17;100079.03;;;11.11;92.32
33625;BME280;19962;47.820;1.930;2023-01-15T06:59:47;100073.13;;;11.03;91.97
33625;BME280;19962;47.820;1.930;2023-01-15T07:02:13;100076.44;;;11.05;91.55
33625;BME280;19962;47.820;1.930;2023-01-15T07:04:39;100088.31;;;10.94;91.55
33625;BME280;19962;47.820;1.930;2023-01-15T07:07:06;100090.94;;;10.89;90.78
33625;BME280;19962;47.820;1.930;2023-01-15T07:09:32;100089.28;;;10.88;90.20
33625;BME280;19962;47.820;1.930;2023-01-15T07:11:58;100091.44;;;10.86;90.27
33625;BME280;19962;47.820;1.930;2023-01-15T07:14:25;100088.38;;;10.71;90.78
33625;BME280;19962;47.820;1.930;2023-01-15T07:16:56;100102.66;;;10.73;90.46
33625;BME280;19962;47.820;1.930;2023-01-15T07:19:23;100101.34;;;10.75;90.50
33625;BME280;19962;47.820;1.930;2023-01-15T07:21:50;100111.72;;;10.85;90.49
33625;BME280;19962;47.820;1.930;2023-01-15T07:24:16;100111.50;;;10.75;90.22
33625;BME280;19962;47.820;1.930;2023-01-15T07:26:42;100111.28;;;10.76;90.09
33625;BME280;19962;47.820;1.930;2023-01-15T07:29:10;100114.38;;;10.80;90.11
33625;BME280;19962;47.820;1.930;2023-01-15T07:31:37;100118.19;;;10.79;89.67
33625;BME280;19962;47.820;1.930;2023-01-15T07:34:04;100119.00;;;10.79;90.08
33625;BME280;19962;47.820;1.930;2023-01-15T07:36:30;100120.69;;;10.69;89.38
33625;BME280;19962;47.820;1.930;2023-01-15T07:38:56;100118.69;;;10.64;89.69
33625;BME280;19962;47.820;1.930;2023-01-15T07:41:23;100123.56;;;10.62;89.42
33625;BME280;19962;47.820;1.930;2023-01-15T07:44:11;100128.81;;;10.64;88.98
33625;BME280;19962;47.820;1.930;2023-01-15T07:46:55;100130.38;;;10.60;89.12
33625;BME280;19962;47.820;1.930;2023-01-15T07:49:44;100139.81;;;10.52;88.16
33625;BME280;19962;47.820;1.930;2023-01-15T07:52:17;100133.59;;;10.57;88.98
33625;BME280;19962;47.820;1.930;2023-01-15T07:54:45;100144.81;;;10.55;88.32
33625;BME280;19962;47.820;1.930;2023-01-15T07:57:12;100133.72;;;10.62;87.80
33625;BME280;19962;47.820;1.930;2023-01-15T07:59:40;100134.53;;;10.62;87.97
33625;BME280;19962;47.820;1.930;2023-01-15T08:02:06;100133.97;;;10.49;87.40
33625;BME280;19962;47.820;1.930;2023-01-15T08:04:33;100137.06;;;10.41;88.19
33625;BME280;19962;47.820;1.930;2023-01-15T08:07:00;100138.16;;;10.40;87.90
33625;BME280;19962;47.820;1.930;2023-01-15T08:09:27;100127.19;;;10.40;87.45
33625;BME280;19962;47.820;1.930;2023-01-15T08:11:53;100125.75;;;10.49;87.62
33625;BME280;19962;47.820;1.930;2023-01-15T08:14:38;100134.19;;;10.47;86.39
33625;BME280;19962;47.820;1.930;2023-01-15T08:17:23;100135.88;;;10.48;86.97
33625;BME280;19962;47.820;1.930;2023-01-15T08:19:49;100135.50;;;10.45;87.50
33625;BME280;19962;47.820;1.930;2023-01-15T08:22:15;100130.88;;;10.45;87.26
33625;BME280;19962;47.820;1.930;2023-01-15T08:24:41;100137.06;;;10.41;87.73
33625;BME280;19962;47.820;1.930;2023-01-15T08:27:07;100140.28;;;10.38;86.92
33625;BME280;19962;47.820;1.930;2023-01-15T08:29:33;100134.44;;;10.46;86.87
33625;BME280;19962;47.820;1.930;2023-01-15T08:31:59;100125.84;;;10.54;86.74
33625;BME280;19962;47.820;1.930;2023-01-15T08:34:25;100131.22;;;10.49;86.78
33625;BME280;19962;47.820;1.930;2023-01-15T08:36:51;100131.91;;;10.56;86.74
33625;BME280;19962;47.820;1.930;2023-01-15T08:39:22;100132.53;;;10.46;85.52
33625;BME280;19962;47.820;1.930;2023-01-15T08:41:48;100140.88;;;10.40;85.55
33625;BME280;19962;47.820;1.930;2023-01-15T08:44:14;100133.63;;;10.45;85.91
33625;BME280;19962;47.820;1.930;2023-01-15T08:46:42;100147.06;;;10.47;85.07
33625;BME280;19962;47.820;1.930;2023-01-15T08:49:10;100147.91;;;10.47;84.66
33625;BME280;19962;47.820;1.930;2023-01-15T08:51:37;100149.81;;;10.47;84.00
33625;BME280;19962;47.820;1.930;2023-01-15T08:54:03;100158.78;;;10.42;84.61
33625;BME280;19962;47.820;1.930;2023-01-15T08:56:29;100143.50;;;10.46;84.79
33625;BME280;19962;47.820;1.930;2023-01-15T08:58:55;100157.81;;;10.48;84.19
33625;BME280;19962;47.820;1.930;2023-01-15T09:01:21;100158.53;;;10.55;84.63
33625;BME280;19962;47.820;1.930;2023-01-15T09:03:48;100171.03;;;10.51;83.96
33625;BME280;19962;47.820;1.930;2023-01-15T09:06:14;100171.03;;;10.51;84.29
33625;BME280;19962;47.820;1.930;2023-01-15T09:08:40;100184.28;;;10.54;84.75
33625;BME280;19962;47.820;1.930;2023-01-15T09:11:07;100183.56;;;10.59;84.32
33625;BME280;19962;47.820;1.930;2023-01-15T09:13:37;100182.84;;;10.63;83.75
33625;BME280;19962;47.820;1.930;2023-01-15T09:16:05;100189.28;;;10.57;83.28
33625;BME280;19962;47.820;1.930;2023-01-15T09:18:32;100184.75;;;10.40;84.30
33625;BME280;19962;47.820;1.930;2023-01-15T09:20:59;100193.94;;;10.57;84.42
33625;BME280;19962;47.820;1.930;2023-01-15T09:23:25;100181.06;;;10.57;84.28
33625;BME280;19962;47.820;1.930;2023-01-15T09:25:56;100194.19;;;10.55;83.51
33625;BME280;19962;47.820;1.930;2023-01-15T09:28:23;100179.03;;;10.64;83.79
33625;BME280;19962;47.820;1.930;2023-01-15T09:30:49;100182.13;;;10.68;83.19
33625;BME280;19962;47.820;1.930;2023-01-15T09:33:15;100198.22;;;10.76;83.12
33625;BME280;19962;47.820;1.930;2023-01-15T09:35:44;100191.53;;;10.83;82.85
33625;BME280;19962;47.820;1.930;2023-01-15T09:38:12;100188.09;;;10.88;83.02
33625;BME280;19962;47.820;1.930;2023-01-15T09:40:53;100200.84;;;10.94;81.76
33625;BME280;19962;47.820;1.930;2023-01-15T09:43:45;100197.03;;;10.83;81.94
33625;BME280;19962;47.820;1.930;2023-01-15T09:46:22;100196.78;;;10.85;81.31
33625;BME280;19962;47.820;1.930;2023-01-15T09:49:12;100202.50;;;10.83;81.06
33625;BME280;19962;47.820;1.930;2023-01-15T09:54:51;100210.16;;;10.70;79.00
33625;BME280;19962;47.820;1.930;2023-01-15T09:57:23;100209.44;;;10.86;80.13
33625;BME280;19962;47.820;1.930;2023-01-15T09:59:51;100208.09;;;10.88;79.85
33625;BME280;19962;47.820;1.930;2023-01-15T10:05:00;100205.25;;;10.83;77.35
33625;BME280;19962;47.820;1.930;2023-01-15T10:07:38;100205.75;;;10.92;79.12
33625;BME280;19962;47.820;1.930;2023-01-15T10:10:12;100208.19;;;11.05;79.25
33625;BME280;19962;47.820;1.930;2023-01-15T10:12:43;100209.16;;;10.99;78.81
33625;BME280;19962;47.820;1.930;2023-01-15T10:17:54;100210.47;;;11.08;78.05
33625;BME280;19962;47.820;1.930;2023-01-15T10:20:43;100208.59;;;10.97;77.39
33625;BME280;19962;47.820;1.930;2023-01-15T10:28:56;100215.59;;;11.16;77.74
33625;BME280;19962;47.820;1.930;2023-01-15T10:31:34;100202.22;;;11.19;77.93
33625;BME280;19962;47.820;1.930;2023-01-15T10:45:59;100188.84;;;11.11;75.84
33625;BME280;19962;47.820;1.930;2023-01-15T10:51:12;100190.88;;;11.16;76.14
33625;BME280;19962;47.820;1.930;2023-01-15T10:53:41;100178.91;;;11.22;76.32
33625;BME280;19962;47.820;1.930;2023-01-15T10:59:10;100183.50;;;11.05;75.44
33625;BME280;19962;47.820;1.930;2023-01-15T11:01:38;100186.34;;;11.21;76.21
33625;BME280;19962;47.820;1.930;2023-01-15T11:04:11;100181.63;;;11.33;76.30
33625;BME280;19962;47.820;1.930;2023-01-15T11:06:38;100184.28;;;11.28;75.76
33625;BME280;19962;47.820;1.930;2023-01-15T11:09:04;100179.72;;;11.34;75.68
33625;BME280;19962;47.820;1.930;2023-01-15T11:11:36;100166.00;;;11.34;75.10
33625;BME280;19962;47.820;1.930;2023-01-15T11:14:32;100176.28;;;11.27;74.05
33625;BME280;19962;47.820;1.930;2023-01-15T11:17:17;100179.72;;;11.34;74.28
33625;BME280;19962;47.820;1.930;2023-01-15T11:20:03;100178.16;;;11.38;73.78
33625;BME280;19962;47.820;1.930;2023-01-15T11:22:30;100180.31;;;11.36;73.65
33625;BME280;19962;47.820;1.930;2023-01-15T11:25:03;100170.03;;;11.43;74.40
33625;BME280;19962;47.820;1.930;2023-01-15T11:27:31;100187.19;;;11.50;73.33
33625;BME280;19962;47.820;1.930;2023-01-15T11:30:01;100179.78;;;11.50;73.86
33625;BME280;19962;47.820;1.930;2023-01-15T11:32:35;100182.34;;;11.40;72.47
33625;BME280;19962;47.820;1.930;2023-01-15T11:37:33;100174.53;;;11.49;73.58
33625;BME280;19962;47.820;1.930;2023-01-15T11:40:00;100168.88;;;11.55;73.39
33625;BME280;19962;47.820;1.930;2023-01-15T11:42:37;100179.53;;;11.52;72.90
33625;BME280;19962;47.820;1.930;2023-01-15T11:45:23;100172.81;;;11.59;72.74
33625;BME280;19962;47.820;1.930;2023-01-15T11:48:19;100168.03;;;11.66;72.45
33625;BME280;19962;47.820;1.930;2023-01-15T11:51:15;100171.91;;;11.82;72.19
33625;BME280;19962;47.820;1.930;2023-01-15T11:53:50;100156.00;;;11.84;71.55
33625;BME280;19962;47.820;1.930;2023-01-15T11:56:25;100164.22;;;11.84;71.54
33625;BME280;19962;47.820;1.930;2023-01-15T11:58:54;100148.66;;;11.73;71.49
33625;BME280;19962;47.820;1.930;2023-01-15T12:01:33;100152.88;;;11.64;71.08
33625;BME280;19962;47.820;1.930;2023-01-15T12:04:04;100157.00;;;11.78;71.08
33625;BME280;19962;47.820;1.930;2023-01-15T12:06:31;100149.91;;;11.82;71.24
33625;BME280;19962;47.820;1.930;2023-01-15T12:09:11;100150.72;;;11.82;71.05
33625;BME280;19962;47.820;1.930;2023-01-15T12:28:50;100109.25;;;12.00;68.13
33625;BME280;19962;47.820;1.930;2023-01-15T12:31:28;100104.94;;;12.04;68.77
33625;BME280;19962;47.820;1.930;2023-01-15T12:34:02;100089.69;;;11.97;68.68
33625;BME280;19962;47.820;1.930;2023-01-15T12:41:44;100085.09;;;12.19;68.24
33625;BME280;19962;47.820;1.930;2023-01-15T12:44:51;100091.47;;;12.41;67.74
33625;BME280;19962;47.820;1.930;2023-01-15T12:47:48;100094.59;;;12.28;66.62
33625;BME280;19962;47.820;1.930;2023-01-15T12:50:33;100075.50;;;12.21;66.45
33625;BME280;19962;47.820;1.930;2023-01-15T12:55:41;100067.03;;;12.06;66.98
33625;BME280;19962;47.820;1.930;2023-01-15T12:58:33;100069.69;;;12.18;67.32
33625;BME280;19962;47.820;1.930;2023-01-15T13:06:45;100054.09;;;12.07;66.91
33625;BME280;19962;47.820;1.930;2023-01-15T13:09:37;100053.13;;;12.13;67.38
33625;BME280;19962;47.820;1.930;2023-01-15T13:12:14;100050.38;;;12.13;66.63
33625;BME280;19962;47.820;1.930;2023-01-15T13:14:42;100048.72;;;12.12;66.82
33625;BME280;19962;47.820;1.930;2023-01-15T13:23:06;100028.78;;;12.43;66.16
33625;BME280;19962;47.820;1.930;2023-01-15T13:33:45;100024.91;;;12.22;65.70
33625;BME280;19962;47.820;1.930;2023-01-15T13:36:37;100014.31;;;12.31;65.03
33625;BME280;19962;47.820;1.930;2023-01-15T13:39:03;100008.81;;;12.31;65.46
33625;BME280;19962;47.820;1.930;2023-01-15T13:41:31;100004.53;;;12.40;65.34
33625;BME280;19962;47.820;1.930;2023-01-15T13:44:21;99993.97;;;12.32;64.43
33625;BME280;19962;47.820;1.930;2023-01-15T13:46:59;100004.44;;;12.13;64.41
33625;BME280;19962;47.820;1.930;2023-01-15T13:49:34;100007.13;;;12.08;65.41
33625;BME280;19962;47.820;1.930;2023-01-15T13:52:05;99999.47;;;12.10;66.02
33625;BME280;19962;47.820;1.930;2023-01-15T13:54:35;100033.19;;;12.06;66.25
33625;BME280;19962;47.820;1.930;2023-01-15T13:59:54;100035.22;;;11.61;69.16
33625;BME280;19962;47.820;1.930;2023-01-15T14:02:24;100041.84;;;11.48;70.99
33625;BME280;19962;47.820;1.930;2023-01-15T14:04:51;100039.19;;;11.37;72.07
33625;BME280;19962;47.820;1.930;2023-01-15T14:07:18;100051.44;;;11.18;73.51
33625;BME280;19962;47.820;1.930;2023-01-15T14:09:45;100040.03;;;11.09;74.82
33625;BME280;19962;47.820;1.930;2023-01-15T14:12:35;100057.50;;;11.03;77.46
33625;BME280;19962;47.820;1.930;2023-01-15T14:15:25;100039.69;;;11.06;77.67
33625;BME280;19962;47.820;1.930;2023-01-15T14:20:54;100002.22;;;11.28;77.93
33625;BME280;19962;47.820;1.930;2023-01-15T14:23:52;100003.19;;;11.22;79.10
33625;BME280;19962;47.820;1.930;2023-01-15T14:26:35;99977.59;;;11.33;78.69
33625;BME280;19962;47.820;1.930;2023-01-15T14:30:31;99983.72;;;11.40;79.26
33625;BME280;19962;47.820;1.930;2023-01-15T14:32:59;99975.41;;;11.51;79.44
33625;BME280;19962;47.820;1.930;2023-01-15T14:35:43;99983.59;;;11.63;79.07
33625;BME280;19962;47.820;1.930;2023-01-15T14:38:17;99978.63;;;11.60;78.88
33625;BME280;19962;47.820;1.930;2023-01-15T14:40:59;99971.44;;;11.59;79.85
33625;BME280;19962;47.820;1.930;2023-01-15T14:43:30;99962.88;;;11.72;79.37
33625;BME280;19962;47.820;1.930;2023-01-15T14:46:12;99956.94;;;11.80;79.53
33625;BME280;19962;47.820;1.930;2023-01-15T14:48:39;99956.38;;;11.78;78.78
33625;BME280;19962;47.820;1.930;2023-01-15T14:51:25;99949.81;;;11.62;79.61
33625;BME280;19962;47.820;1.930;2023-01-15T14:53:56;99951.16;;;11.60;79.52
33625;BME280;19962;47.820;1.930;2023-01-15T14:56:35;99949.28;;;11.49;80.14
33625;BME280;19962;47.820;1.930;2023-01-15T14:59:16;99943.47;;;11.45;80.25
33625;BME280;19962;47.820;1.930;2023-01-15T15:04:34;99939.78;;;11.40;80.40
33625;BME280;19962;47.820;1.930;2023-01-15T15:07:11;99935.06;;;11.35;80.17